首页
METAR-TAF:

METAR-TAF

机场 :

马略卡岛帕尔马机场

帕爾馬, 西班牙

纬度: 39-33N, 经度: 002-44E, 海拔: 4米

当前天气观测

该预报发布于33分钟前的09:00 UTC
风速1节,风向北转东北
温度 29°C
湿度 55%
气压 1019 hPa
能见度10公里或以上
散云层高于2500英尺
少量云层高于4000英尺, 积雨云.
附近有雷暴

METAR: LEPA 190900Z 02001KT 9999 VCTS SCT025 FEW040CB 29/19 Q1019 TEMPO TSRA

时间: 11:33 (09:33 UTC)

预报

该预报发布于1小时和22分钟前的08:11 UTC
预报有效从19日的 08点(UTC)到 20日的 06点(UTC)
风速4节,风向多变
能见度10公里或以上
少量云层高于3000英尺
几率 40% :
短暂存在
从 19日的 08点(UTC)到 19日的 13点(UTC)
能見度: 3000
少量云层高于2500英尺, 积雨云.
雷暴, 雨
成为
从 19日的 08点(UTC)到 19日的 10点(UTC)
风速10节,风向北转东北
几率 30% :
短暂存在
从 19日的 08点(UTC)到 19日的 17点(UTC)
风速10节,风向西南
短暂存在
从 19日的 14点(UTC)到 19日的 17点(UTC)
风速10节,风向北转东北,有时为20节阵风
成为
从 19日的 18点(UTC)到 19日的 20点(UTC)
风速3节,风向多变

TAF: LEPA 190811Z 1908/2006 VRB04KT 9999 FEW030 TX31/1912Z TN20/2006Z PROB40 TEMPO 1908/1913 3000 TSRA FEW025CB BECMG 1908/1910 03010KT PROB30 TEMPO 1908/1917 22010KT TEMPO 1914/1917 03010G20KT BECMG 1918/1920 VRB03KT

超过4000个机场的气象观测和天气预报(METAR&TAF报告)。

可查询的气象台以黄色和红色小点在地图上表示。

将鼠标移到小点上方,可查看气象台名称。

然后点击查看天气观测和预报。

如需切换地图:点击带黑十字的绿色按钮放大地图;点击带横线的绿色按钮缩小地图;或者点击绿色箭头查看邻近地区的地图。


METAR-TAF: